Time;durP1;ratioP1;P1;durP2;ratioP2;P2;SDS_P1;SDS_P2;PMS_P1;PMS_P2;Temp;Humidity;BMP_temperature;BMP_pressure;BME280_temperature;BME280_humidity;BME280_pressure;Samples;Min_cycle;Max_cycle;Signal;HPM_P1;HPM_P2
2022/07/06 05:16:00;;;;;;;;;;;;;;;22.39;44.93;97429.59;4245615;27;10166;-78
2022/07/06 05:18:04;;;;;;;;;;;;;;;22.62;45.02;97431.97;4214421;28;5635;-79
2022/07/06 05:20:09;;;;;;;;;;;;;;;22.86;44.58;97423.59;4247415;27;5610;-77
2022/07/06 05:22:11;;;;;;;;;;;;;;;23.09;44.43;97427.84;4248408;27;5602;-78
2022/07/06 05:24:15;;;;;;;;;;;;;;;23.23;44.26;97429.88;4248000;27;5661;-78
2022/07/06 05:26:18;;;;;;;;;;;;;;;23.34;43.71;97427.25;4234334;27;5726;-78
2022/07/06 05:28:21;;;;;;;;;;;;;;;23.47;43.90;97424.91;4232088;28;5812;-78
2022/07/06 05:30:24;;;;;;;;;;;;;;;23.57;43.84;97428.75;4231842;28;5725;-79
2022/07/06 05:32:29;;;;;;;;;;;;;;;23.68;43.42;97427.75;4225181;28;5616;-78
2022/07/06 05:34:31;;;;;;;;;;;;;;;23.73;43.42;97428.59;4248292;27;6255;-79
2022/07/06 05:36:36;;;;;;;;;;;;;;;23.82;43.53;97437.00;4248344;27;5589;-79
2022/07/06 05:38:39;;;;;;;;;;;;;;;23.92;43.29;97437.06;4242590;27;5745;-78
2022/07/06 05:40:42;;;;;;;;;;;;;;;24.13;43.13;97435.25;4240246;27;5771;-78
2022/07/06 05:42:45;;;;;;;;;;;;;;;24.36;42.76;97439.44;4213626;28;5768;-79
2022/07/06 05:44:48;;;;;;;;;;;;;;;24.59;42.77;97436.25;4234515;27;5658;-78
2022/07/06 05:46:51;;;;;;;;;;;;;;;24.85;42.36;97434.38;4246807;27;5602;-78
2022/07/06 05:51:16;;;;;;;;;;;;;;;25.29;41.86;97433.88;4248390;27;5673;-79
2022/07/06 05:53:19;;;;;;;;;;;;;;;25.49;41.24;97428.44;4230491;28;5628;-79
2022/07/06 05:55:22;;;;;;;;;;;;;;;25.67;41.51;97428.94;4248635;27;5612;-79
2022/07/06 05:57:25;;;;;;;;;;;;;;;25.81;41.19;97435.41;4249042;27;5621;-79
2022/07/06 05:59:29;;;;;;;;;;;;;;;25.87;40.75;97434.34;4248473;27;5605;-78
2022/07/06 06:01:31;;;;;;;;;;;;;;;25.95;40.88;97436.47;4230144;28;5624;-79
2022/07/06 06:03:35;;;;;;;;;;;;;;;26.01;40.52;97429.94;4237257;27;5621;-79
2022/07/06 06:05:39;;;;;;;;;;;;;;;26.09;40.47;97432.09;4223080;28;5616;-79
2022/07/06 06:07:42;;;;;;;;;;;;;;;26.20;40.47;97426.63;4241280;27;5698;-79
2022/07/06 06:09:45;;;;;;;;;;;;;;;26.28;40.26;97435.00;4244119;27;5895;-80
2022/07/06 06:11:48;;;;;;;;;;;;;;;26.33;40.46;97431.44;4230195;28;6334;-79
2022/07/06 06:13:51;;;;;;;;;;;;;;;26.40;40.40;97432.78;4240114;27;5601;-79
2022/07/06 06:15:54;;;;;;;;;;;;;;;26.44;39.99;97433.03;4242001;27;5837;-79
2022/07/06 06:17:57;;;;;;;;;;;;;;;26.42;40.05;97435.22;4233758;28;6314;-79
2022/07/06 06:20:00;;;;;;;;;;;;;;;26.43;40.34;97436.84;4236805;28;5668;-79
2022/07/06 06:22:06;;;;;;;;;;;;;;;26.41;40.13;97439.03;4234694;28;5680;-80
2022/07/06 06:24:09;;;;;;;;;;;;;;;26.43;39.96;97439.56;4219985;28;7224;-79
2022/07/06 06:26:13;;;;;;;;;;;;;;;26.48;40.22;97433.28;4221054;28;5620;-79
2022/07/06 06:28:18;;;;;;;;;;;;;;;26.52;39.94;97429.75;4236066;28;5617;-80
2022/07/06 06:30:21;;;;;;;;;;;;;;;26.61;39.98;97444.31;4235689;28;5597;-79
2022/07/06 06:32:24;;;;;;;;;;;;;;;26.57;39.86;97437.84;4236337;28;5685;-78
2022/07/06 06:34:28;;;;;;;;;;;;;;;26.57;39.90;97447.88;4216996;28;6405;-79
2022/07/06 06:36:31;;;;;;;;;;;;;;;26.59;40.07;97445.69;4223396;28;5795;-79
2022/07/06 06:38:35;;;;;;;;;;;;;;;26.64;39.74;97437.53;4236343;28;5669;-78
2022/07/06 06:40:38;;;;;;;;;;;;;;;26.66;39.92;97433.44;4225834;28;5636;-79
2022/07/06 06:42:41;;;;;;;;;;;;;;;26.69;39.85;97437.50;4226726;28;5610;-79
2022/07/06 06:44:44;;;;;;;;;;;;;;;26.68;39.57;97435.88;4236514;28;5733;-78
2022/07/06 06:46:47;;;;;;;;;;;;;;;26.68;39.48;97436.69;4236518;28;5602;-78
2022/07/06 06:48:50;;;;;;;;;;;;;;;26.70;39.77;97433.69;4223974;28;5613;-79
2022/07/06 06:50:53;;;;;;;;;;;;;;;26.73;39.55;97440.44;4219255;28;5053;-78
2022/07/06 06:52:56;;;;;;;;;;;;;;;26.74;39.51;97436.66;4222422;28;5614;-79
2022/07/06 06:55:00;;;;;;;;;;;;;;;26.79;39.73;97433.91;4235867;28;5606;-79
2022/07/06 06:57:04;;;;;;;;;;;;;;;26.83;39.68;97432.25;4230645;28;5602;-80
2022/07/06 06:59:07;;;;;;;;;;;;;;;26.84;39.55;97434.69;4228994;28;5673;-75
2022/07/06 07:01:20;;;;;;;;;;;;;;;26.81;39.56;97437.16;4230630;28;5608;-74
2022/07/06 07:03:23;;;;;;;;;;;;;;;26.76;39.78;97445.31;4235933;28;5828;-79
2022/07/06 07:05:26;;;;;;;;;;;;;;;26.73;39.70;97441.28;4230074;28;5597;-84
2022/07/06 07:07:29;;;;;;;;;;;;;;;26.74;39.81;97442.91;4229221;28;5620;-77
2022/07/06 07:09:34;;;;;;;;;;;;;;;26.73;40.02;97445.88;4224209;28;5695;-76
2022/07/06 07:11:38;;;;;;;;;;;;;;;26.66;39.94;97440.78;4221868;28;5673;-76
2022/07/06 07:13:41;;;;;;;;;;;;;;;26.57;39.91;97443.25;4234544;28;5849;-73
2022/07/06 07:15:45;;;;;;;;;;;;;;;26.46;40.09;97438.19;4231148;28;5688;-76
2022/07/06 07:17:48;;;;;;;;;;;;;;;26.37;40.15;97437.94;4235385;28;5661;-76
2022/07/06 07:19:51;;;;;;;;;;;;;;;26.32;40.55;97440.66;4217662;28;5621;-76
2022/07/06 07:21:54;;;;;;;;;;;;;;;26.28;40.70;97447.75;4235395;28;5593;-76
2022/07/06 07:23:56;;;;;;;;;;;;;;;26.22;40.74;97446.94;4219277;28;5726;-76
2022/07/06 07:25:59;;;;;;;;;;;;;;;26.17;40.89;97446.16;4218800;28;5706;-76
2022/07/06 07:28:05;;;;;;;;;;;;;;;26.06;40.56;97448.91;4218117;28;5645;-76
2022/07/06 07:30:09;;;;;;;;;;;;;;;26.02;40.79;97449.72;4218781;28;6397;-76
2022/07/06 07:32:12;;;;;;;;;;;;;;;25.96;40.71;97445.41;4218943;28;5608;-76
2022/07/06 07:34:16;;;;;;;;;;;;;;;25.88;40.86;97441.38;4218571;28;5801;-76
2022/07/06 07:36:19;;;;;;;;;;;;;;;25.84;40.97;97434.91;4218488;28;5609;-76
2022/07/06 07:38:22;;;;;;;;;;;;;;;25.85;41.23;97444.63;4218883;28;5684;-76
2022/07/06 07:40:28;;;;;;;;;;;;;;;25.83;41.26;97450.34;4204365;28;5687;-75
2022/07/06 07:42:31;;;;;;;;;;;;;;;25.81;41.27;97440.84;4235915;28;5672;-76
2022/07/06 07:44:35;;;;;;;;;;;;;;;25.78;41.40;97435.97;4217340;28;5624;-76
2022/07/06 07:46:38;;;;;;;;;;;;;;;25.77;41.18;97439.78;4235347;28;5657;-76
2022/07/06 07:48:41;;;;;;;;;;;;;;;25.75;41.06;97442.75;4235580;28;5598;-76
2022/07/06 07:50:44;;;;;;;;;;;;;;;25.74;41.21;97438.44;4235020;28;5668;-76
2022/07/06 07:52:47;;;;;;;;;;;;;;;25.69;41.42;97437.59;4235573;28;5661;-76
2022/07/06 07:54:52;;;;;;;;;;;;;;;25.63;41.53;97444.94;4235270;28;6725;-75
2022/07/06 07:57:15;;;;;;;;;;;;;;;25.54;41.43;97441.16;4235518;28;5684;-76
2022/07/06 07:59:18;;;;;;;;;;;;;;;25.52;41.91;97436.00;4235224;28;5767;-75
2022/07/06 08:01:23;;;;;;;;;;;;;;;25.50;41.45;97440.91;4217199;28;5628;-76
2022/07/06 08:03:26;;;;;;;;;;;;;;;25.45;41.80;97438.19;4235250;28;5605;-75
2022/07/06 08:05:29;;;;;;;;;;;;;;;25.44;41.78;97435.75;4234698;28;5613;-75
2022/07/06 08:07:32;;;;;;;;;;;;;;;25.38;41.80;97434.94;4216995;28;5185;-76
2022/07/06 08:09:35;;;;;;;;;;;;;;;25.33;41.90;97445.78;4235261;28;5594;-76
2022/07/06 08:11:39;;;;;;;;;;;;;;;25.30;41.99;97440.91;4235411;28;5668;-75
2022/07/06 08:13:43;;;;;;;;;;;;;;;25.31;41.75;97447.94;4235207;28;5609;-75
2022/07/06 08:15:46;;;;;;;;;;;;;;;25.36;41.94;97444.41;4234938;28;5675;-76
2022/07/06 08:17:50;;;;;;;;;;;;;;;25.36;41.90;97439.81;4234981;28;6311;-76
2022/07/06 08:19:54;;;;;;;;;;;;;;;25.41;41.56;97439.81;4235015;28;5610;-76
2022/07/06 08:21:57;;;;;;;;;;;;;;;25.42;41.83;97435.22;4216418;28;5800;-76
2022/07/06 08:24:01;;;;;;;;;;;;;;;25.41;41.66;97437.09;4234867;28;5590;-75
2022/07/06 08:26:04;;;;;;;;;;;;;;;25.44;42.21;97441.16;4216831;28;5616;-75
2022/07/06 08:28:07;;;;;;;;;;;;;;;25.44;42.05;97433.84;4235005;28;5605;-75
2022/07/06 08:30:12;;;;;;;;;;;;;;;25.48;42.07;97428.69;4234940;28;5856;-75
2022/07/06 08:32:16;;;;;;;;;;;;;;;25.47;41.93;97430.59;4234858;28;6290;-76
2022/07/06 08:34:43;;;;;;;;;;;;;;;25.49;42.28;97428.44;4216513;28;5736;-75
2022/07/06 08:36:45;;;;;;;;;;;;;;;25.51;42.46;97441.69;4234478;28;5594;-75
2022/07/06 08:38:49;;;;;;;;;;;;;;;25.51;42.43;97436.28;4234625;28;6362;-75
2022/07/06 08:40:53;;;;;;;;;;;;;;;25.53;42.52;97436.81;4234847;28;5928;-75
2022/07/06 08:42:57;;;;;;;;;;;;;;;25.54;42.21;97435.72;4234780;28;5613;-75
2022/07/06 08:45:01;;;;;;;;;;;;;;;25.54;42.60;97430.31;4234771;28;5621;-76
2022/07/06 08:47:06;;;;;;;;;;;;;;;25.57;42.34;97440.59;4234426;28;5606;-76
2022/07/06 08:49:09;;;;;;;;;;;;;;;25.58;42.40;97431.38;4234615;28;5758;-75
2022/07/06 08:51:14;;;;;;;;;;;;;;;25.61;42.23;97440.88;4234380;28;5598;-76
2022/07/06 08:53:18;;;;;;;;;;;;;;;25.61;42.61;97441.69;4234443;28;5791;-76
2022/07/06 08:55:21;;;;;;;;;;;;;;;25.61;42.67;97432.75;4234464;28;5700;-76
2022/07/06 08:57:25;;;;;;;;;;;;;;;25.59;42.53;97432.19;4234872;28;5602;-77
2022/07/06 08:59:29;;;;;;;;;;;;;;;25.59;42.89;97437.59;4234860;28;5688;-76
2022/07/06 09:01:33;;;;;;;;;;;;;;;25.56;42.89;97438.97;4234461;28;5676;-76
2022/07/06 09:03:37;;;;;;;;;;;;;;;25.54;42.87;97436.53;4216217;28;5644;-76
2022/07/06 09:05:43;;;;;;;;;;;;;;;25.51;43.00;97439.81;4234167;28;5780;-75
2022/07/06 09:07:50;;;;;;;;;;;;;;;25.51;43.06;97442.50;4234486;28;5577;-76
2022/07/06 09:10:03;;;;;;;;;;;;;;;25.52;42.99;97444.13;4234916;28;5605;-76
2022/07/06 09:12:12;;;;;;;;;;;;;;;25.53;42.78;97451.16;4234525;28;5634;-76
2022/07/06 09:14:15;;;;;;;;;;;;;;;25.55;43.16;97440.06;4234211;28;5613;-75
2022/07/06 09:16:25;;;;;;;;;;;;;;;25.55;43.09;97443.56;4234809;28;5487;-76
2022/07/06 09:18:42;;;;;;;;;;;;;;;25.55;43.23;97440.88;4233768;28;5601;-76
2022/07/06 09:20:45;;;;;;;;;;;;;;;25.54;43.28;97450.06;4234414;28;5626;-75
2022/07/06 09:22:50;;;;;;;;;;;;;;;25.54;43.12;97441.97;4234345;28;5614;-76
2022/07/06 09:24:53;;;;;;;;;;;;;;;25.55;43.17;97446.28;4235237;28;5622;-77
2022/07/06 09:26:59;;;;;;;;;;;;;;;25.58;43.36;97441.41;4235889;28;5601;-76
2022/07/06 09:29:05;;;;;;;;;;;;;;;25.58;43.24;97450.34;4217140;28;7257;-76
2022/07/06 09:31:08;;;;;;;;;;;;;;;25.53;43.30;97444.94;4236459;28;5625;-76
2022/07/06 09:33:19;;;;;;;;;;;;;;;25.57;43.71;97437.06;4235796;28;5688;-76
2022/07/06 09:35:24;;;;;;;;;;;;;;;25.58;43.53;97428.69;4235686;28;6267;-75
2022/07/06 09:37:30;;;;;;;;;;;;;;;25.62;43.60;97431.66;4218805;28;5636;-75
2022/07/06 09:39:35;;;;;;;;;;;;;;;25.66;43.13;97430.03;4217946;28;5699;-75
2022/07/06 09:41:38;;;;;;;;;;;;;;;25.65;43.34;97431.91;4237654;28;5613;-75
2022/07/06 09:43:41;;;;;;;;;;;;;;;25.67;43.58;97437.88;4235548;28;5605;-75
2022/07/06 09:45:46;;;;;;;;;;;;;;;25.67;43.16;97437.88;4237008;28;5622;-75
2022/07/06 09:47:49;;;;;;;;;;;;;;;25.69;43.46;97440.28;4235449;28;5688;-75
2022/07/06 09:49:57;;;;;;;;;;;;;;;25.73;43.63;97444.13;4234211;28;5785;-75
2022/07/06 09:52:01;;;;;;;;;;;;;;;25.75;43.61;97440.06;4236320;28;5972;-75
2022/07/06 09:54:08;;;;;;;;;;;;;;;25.75;43.48;97439.25;4237358;28;6271;-75
2022/07/06 09:56:13;;;;;;;;;;;;;;;25.75;43.61;97441.94;4237542;28;5671;-75
2022/07/06 09:58:17;;;;;;;;;;;;;;;25.72;43.41;97442.50;4232640;28;5613;-75
2022/07/06 10:00:45;;;;;;;;;;;;;;;25.72;43.48;97439.81;4237277;28;5709;-74
2022/07/06 10:02:49;;;;;;;;;;;;;;;25.74;43.30;97443.84;4237050;28;5614;-75
2022/07/06 10:04:58;;;;;;;;;;;;;;;25.77;43.20;97439.78;4236003;28;5692;-75
2022/07/06 10:07:02;;;;;;;;;;;;;;;25.77;43.30;97451.41;4225239;28;5610;-75
2022/07/06 10:09:07;;;;;;;;;;;;;;;25.77;43.38;97443.28;4221655;28;5712;-75
2022/07/06 10:11:17;;;;;;;;;;;;;;;25.73;43.60;97444.94;4234696;28;5684;-75
2022/07/06 10:13:22;;;;;;;;;;;;;;;25.75;43.43;97444.66;4236422;28;6388;-75
2022/07/06 10:15:27;;;;;;;;;;;;;;;25.79;43.62;97451.13;4221924;28;5617;-75
2022/07/06 10:17:31;;;;;;;;;;;;;;;25.80;43.37;97445.44;4219942;28;5759;-75
2022/07/06 10:19:34;;;;;;;;;;;;;;;25.82;43.38;97442.47;4219742;28;5608;-75
2022/07/06 10:21:38;;;;;;;;;;;;;;;25.85;43.08;97447.34;4219412;28;5727;-76
2022/07/06 10:23:44;;;;;;;;;;;;;;;25.89;43.42;97439.47;4232045;28;5657;-75
2022/07/06 10:25:48;;;;;;;;;;;;;;;25.92;43.31;97441.63;4236837;28;6127;-75
2022/07/06 10:27:54;;;;;;;;;;;;;;;25.97;43.03;97441.63;4236646;28;5594;-76
2022/07/06 10:29:57;;;;;;;;;;;;;;;25.98;43.01;97441.34;4236909;28;5600;-75
2022/07/06 10:32:01;;;;;;;;;;;;;;;26.00;43.20;97439.16;4236593;28;5602;-75
2022/07/06 10:34:07;;;;;;;;;;;;;;;26.04;43.19;97434.78;4236544;28;5700;-76
2022/07/06 10:36:11;;;;;;;;;;;;;;;26.07;42.80;97447.81;4236368;28;5672;-76
2022/07/06 10:38:14;;;;;;;;;;;;;;;26.09;42.76;97434.78;4236284;28;5582;-75
2022/07/06 10:42:44;;;;;;;;;;;;;;;26.17;42.60;97444.25;4236189;28;5645;-75
2022/07/06 10:44:48;;;;;;;;;;;;;;;26.17;42.71;97438.84;4236422;28;5649;-75
2022/07/06 10:46:54;;;;;;;;;;;;;;;26.19;42.36;97438.56;4235938;28;5597;-75
2022/07/06 10:48:57;;;;;;;;;;;;;;;26.19;42.32;97435.84;4236502;28;5624;-76
2022/07/06 10:51:02;;;;;;;;;;;;;;;26.21;42.15;97439.91;4236267;28;5586;-76
2022/07/06 10:53:11;;;;;;;;;;;;;;;26.21;42.52;97434.47;4236882;28;5743;-75
2022/07/06 10:55:29;;;;;;;;;;;;;;;26.24;42.40;97439.31;4236551;28;5609;-75
2022/07/06 10:57:52;;;;;;;;;;;;;;;26.25;42.39;97434.72;4236721;28;5589;-75
2022/07/06 11:00:05;;;;;;;;;;;;;;;26.25;42.45;97437.44;4236382;28;5112;-75
2022/07/06 11:02:16;;;;;;;;;;;;;;;26.29;41.96;97439.31;4236450;28;5581;-75
2022/07/06 11:04:19;;;;;;;;;;;;;;;26.30;41.97;97432.00;4236474;28;5609;-75
2022/07/06 11:06:24;;;;;;;;;;;;;;;26.33;41.96;97440.38;4235455;28;5822;-75
2022/07/06 11:08:48;;;;;;;;;;;;;;;26.37;41.95;97438.75;4217967;28;5621;-75
2022/07/06 11:10:51;;;;;;;;;;;;;;;26.39;41.72;97428.47;4236323;28;5723;-76
2022/07/06 11:12:59;;;;;;;;;;;;;;;26.43;41.88;97423.28;4236103;28;5593;-75
2022/07/06 11:15:05;;;;;;;;;;;;;;;26.43;41.76;97420.56;4235731;28;5677;-75
2022/07/06 11:17:11;;;;;;;;;;;;;;;26.44;41.82;97418.66;4236200;28;5781;-75
2022/07/06 11:19:15;;;;;;;;;;;;;;;26.44;41.83;97405.94;4236033;28;5605;-75
2022/07/06 11:21:21;;;;;;;;;;;;;;;26.44;41.72;97410.53;4217772;28;5080;-75
2022/07/06 11:23:23;;;;;;;;;;;;;;;26.46;42.08;97414.59;4217961;28;5818;-76
2022/07/06 11:25:28;;;;;;;;;;;;;;;26.49;41.69;97418.63;4236341;28;5610;-75
2022/07/06 11:27:31;;;;;;;;;;;;;;;26.50;41.98;97415.63;4236169;28;5704;-75
2022/07/06 11:29:36;;;;;;;;;;;;;;;26.52;41.91;97408.06;4236129;28;5590;-75
2022/07/06 11:31:42;;;;;;;;;;;;;;;26.56;41.84;97403.69;4217748;28;5699;-75
2022/07/06 11:33:49;;;;;;;;;;;;;;;26.58;41.88;97408.81;4235734;28;5601;-75
2022/07/06 11:36:11;;;;;;;;;;;;;;;26.61;41.82;97405.53;4235576;28;5710;-76
2022/07/06 11:38:26;;;;;;;;;;;;;;;26.63;41.53;97401.47;4235844;28;5609;-76
2022/07/06 11:40:30;;;;;;;;;;;;;;;26.69;41.59;97408.47;4235628;28;5676;-75
2022/07/06 11:42:33;;;;;;;;;;;;;;;26.76;41.54;97402.75;4233038;28;5618;-74
2022/07/06 11:44:37;;;;;;;;;;;;;;;26.74;41.39;97404.94;4233040;28;5691;-75
2022/07/06 11:46:41;;;;;;;;;;;;;;;26.75;41.47;97394.88;4235398;28;5602;-75
2022/07/06 11:48:47;;;;;;;;;;;;;;;26.75;41.57;97394.88;4233839;28;5829;-76
2022/07/06 11:50:58;;;;;;;;;;;;;;;26.77;41.51;97404.34;4231376;28;6533;-75
2022/07/06 11:53:01;;;;;;;;;;;;;;;26.83;41.48;97403.22;4234787;28;5863;-75
2022/07/06 11:55:05;;;;;;;;;;;;;;;26.85;41.66;97390.19;4234393;28;5676;-75
2022/07/06 11:57:09;;;;;;;;;;;;;;;26.84;41.39;97388.59;4235145;28;5707;-75
2022/07/06 11:59:13;;;;;;;;;;;;;;;26.83;41.34;97381.50;4229373;28;5725;-75
2022/07/06 12:01:17;;;;;;;;;;;;;;;26.82;41.38;97384.50;4232528;28;5590;-75
2022/07/06 12:03:23;;;;;;;;;;;;;;;26.82;41.35;97400.78;4232277;28;5610;-75
2022/07/06 12:05:31;;;;;;;;;;;;;;;26.83;41.27;97389.66;4218542;28;5794;-75
2022/07/06 12:07:34;;;;;;;;;;;;;;;26.85;41.50;97383.97;4217850;28;5752;-76
2022/07/06 12:09:41;;;;;;;;;;;;;;;26.87;41.18;97385.28;4218108;28;5801;-76
2022/07/06 12:11:47;;;;;;;;;;;;;;;26.88;41.39;97380.69;4217421;28;5765;-75
2022/07/06 12:13:52;;;;;;;;;;;;;;;26.91;41.41;97382.81;4228727;28;5700;-76
2022/07/06 12:15:56;;;;;;;;;;;;;;;26.92;41.14;97381.72;4217077;28;7163;-76
2022/07/06 12:17:59;;;;;;;;;;;;;;;26.91;41.15;97371.97;4218175;28;5632;-76
2022/07/06 12:20:04;;;;;;;;;;;;;;;26.89;41.31;97357.88;4204803;28;5193;-76
2022/07/06 12:22:08;;;;;;;;;;;;;;;26.88;41.17;97361.69;4221207;28;5695;-75
2022/07/06 12:24:19;;;;;;;;;;;;;;;26.90;41.21;97370.34;4225959;28;5609;-75
2022/07/06 12:26:25;;;;;;;;;;;;;;;26.87;40.97;97362.78;4227040;28;5675;-76
2022/07/06 12:28:28;;;;;;;;;;;;;;;26.91;41.16;97367.34;4220355;28;5732;-75
2022/07/06 12:30:34;;;;;;;;;;;;;;;26.93;40.89;97361.63;4229644;28;5848;-76
2022/07/06 12:32:41;;;;;;;;;;;;;;;26.96;40.92;97358.38;4218352;28;5632;-77
2022/07/06 12:34:44;;;;;;;;;;;;;;;26.97;40.46;97360.78;4219335;28;5802;-76
2022/07/06 12:36:50;;;;;;;;;;;;;;;27.00;40.24;97354.00;4227396;28;5823;-76
2022/07/06 12:38:53;;;;;;;;;;;;;;;27.01;39.98;97347.47;4234841;28;5692;-76
2022/07/06 12:40:56;;;;;;;;;;;;;;;27.04;39.82;97349.63;4234605;28;5609;-76
2022/07/06 12:43:00;;;;;;;;;;;;;;;27.09;39.57;97346.06;4234099;28;5593;-76
2022/07/06 12:45:03;;;;;;;;;;;;;;;27.09;39.50;97346.06;4224686;27;5165;-76
2022/07/06 12:47:08;;;;;;;;;;;;;;;27.13;39.39;97342.50;4211304;28;5723;-76
2022/07/06 12:49:17;;;;;;;;;;;;;;;27.19;39.39;97349.50;4217589;28;5616;-76
2022/07/06 12:51:20;;;;;;;;;;;;;;;27.21;39.26;97347.31;4217412;28;5091;-76
2022/07/06 12:53:27;;;;;;;;;;;;;;;27.21;39.36;97346.50;4217774;28;5612;-76
2022/07/06 12:55:32;;;;;;;;;;;;;;;27.25;39.27;97344.81;4220465;28;5682;-76
2022/07/06 12:57:44;;;;;;;;;;;;;;;27.32;38.88;97345.28;4229036;28;5796;-74
2022/07/06 12:59:56;;;;;;;;;;;;;;;27.35;38.87;97344.72;4203176;28;5632;-74
2022/07/06 13:01:59;;;;;;;;;;;;;;;27.37;38.92;97347.13;4221153;28;5096;-75
2022/07/06 13:04:09;;;;;;;;;;;;;;;27.38;38.96;97348.75;4223233;28;5765;-72
2022/07/06 13:06:12;;;;;;;;;;;;;;;27.36;38.92;97350.97;4204343;28;6540;-73
2022/07/06 13:08:15;;;;;;;;;;;;;;;27.38;38.96;97344.13;4224478;28;5716;-74
2022/07/06 13:10:19;;;;;;;;;;;;;;;27.42;38.50;97336.25;4225513;28;5704;-74
2022/07/06 13:12:23;;;;;;;;;;;;;;;27.45;38.46;97338.38;4224903;28;6414;-74
2022/07/06 13:14:26;;;;;;;;;;;;;;;27.43;38.35;97337.84;4217542;28;5095;-74
2022/07/06 13:16:34;;;;;;;;;;;;;;;27.44;38.32;97343.00;4224997;28;5710;-78
2022/07/06 13:18:37;;;;;;;;;;;;;;;27.44;38.40;97336.75;4231431;28;5946;-77
2022/07/06 13:20:41;;;;;;;;;;;;;;;27.43;38.40;97344.09;4224060;28;5716;-73
2022/07/06 13:22:44;;;;;;;;;;;;;;;27.42;38.33;97330.81;4229948;28;5712;-76
2022/07/06 13:24:47;;;;;;;;;;;;;;;27.39;38.24;97328.66;4230696;28;5816;-73
2022/07/06 13:26:52;;;;;;;;;;;;;;;27.43;38.17;97329.72;4215462;28;5756;-74
2022/07/06 13:28:55;;;;;;;;;;;;;;;27.41;37.94;97321.84;4232903;28;5736;-74
2022/07/06 13:30:58;;;;;;;;;;;;;;;27.42;37.87;97326.19;4223254;28;5848;-74
2022/07/06 13:33:01;;;;;;;;;;;;;;;27.44;37.78;97325.91;4211065;28;5832;-73
2022/07/06 13:35:05;;;;;;;;;;;;;;;27.49;37.60;97331.25;4223316;28;7776;-73
2022/07/06 13:37:09;;;;;;;;;;;;;;;27.49;37.39;97326.63;4225721;28;5720;-74
2022/07/06 13:39:12;;;;;;;;;;;;;;;27.50;37.11;97313.88;4231924;28;5729;-75
2022/07/06 13:41:15;;;;;;;;;;;;;;;27.51;37.20;97316.28;4229422;28;5693;-75
2022/07/06 13:43:20;;;;;;;;;;;;;;;27.52;37.23;97322.53;4233025;28;5700;-75
2022/07/06 13:45:24;;;;;;;;;;;;;;;27.49;37.59;97313.06;4226277;28;5863;-75
2022/07/06 13:47:27;;;;;;;;;;;;;;;27.48;37.22;97316.88;4232559;28;5756;-75
2022/07/06 13:49:30;;;;;;;;;;;;;;;27.49;37.47;97312.25;4230820;28;5848;-75
2022/07/06 13:51:34;;;;;;;;;;;;;;;27.46;37.25;97315.56;4234603;28;5689;-75
2022/07/06 13:53:38;;;;;;;;;;;;;;;27.47;37.46;97309.81;4227456;28;5717;-75
2022/07/06 13:55:41;;;;;;;;;;;;;;;27.48;37.03;97305.19;4202598;28;5755;-76
2022/07/06 13:57:45;;;;;;;;;;;;;;;27.52;37.21;97300.81;4214027;28;6470;-75
2022/07/06 13:59:49;;;;;;;;;;;;;;;27.58;37.16;97304.28;4222629;28;5700;-75
2022/07/06 14:01:52;;;;;;;;;;;;;;;27.60;37.09;97288.50;4226493;28;5704;-75
2022/07/06 14:03:56;;;;;;;;;;;;;;;27.62;36.93;97300.69;4220537;28;7806;-75
2022/07/06 14:06:04;;;;;;;;;;;;;;;27.65;36.77;97300.16;4226585;28;5736;-75
2022/07/06 14:08:07;;;;;;;;;;;;;;;27.65;36.72;97291.19;4217606;28;5715;-75
2022/07/06 14:10:10;;;;;;;;;;;;;;;27.65;36.50;97286.56;4221981;27;5775;-75
2022/07/06 14:12:14;;;;;;;;;;;;;;;27.70;36.11;97296.56;4233710;28;7765;-76
2022/07/06 14:14:17;;;;;;;;;;;;;;;27.80;36.06;97289.09;4222710;28;5641;-76
2022/07/06 14:16:21;;;;;;;;;;;;;;;27.91;35.93;97297.09;4229441;28;5140;-76
2022/07/06 14:18:25;;;;;;;;;;;;;;;27.95;35.64;97298.13;4233211;28;5849;-76
2022/07/06 14:20:28;;;;;;;;;;;;;;;27.97;35.57;97290.47;4211289;28;5783;-77
2022/07/06 14:22:31;;;;;;;;;;;;;;;28.02;35.43;97293.16;4225088;28;5716;-76
2022/07/06 14:24:37;;;;;;;;;;;;;;;28.03;35.17;97297.47;4222925;27;5620;-77
2022/07/06 14:26:40;;;;;;;;;;;;;;;28.04;35.08;97288.22;4225515;28;5688;-72
2022/07/06 14:28:43;;;;;;;;;;;;;;;28.05;35.12;97284.41;4225556;28;7679;-78
2022/07/06 14:30:46;;;;;;;;;;;;;;;28.09;34.83;97282.72;4224023;28;6589;-75
2022/07/06 14:32:51;;;;;;;;;;;;;;;28.10;34.70;97276.19;4224590;27;5740;-77
2022/07/06 14:34:54;;;;;;;;;;;;;;;28.10;34.88;97285.16;4221308;28;5752;-77
2022/07/06 14:36:57;;;;;;;;;;;;;;;28.13;34.86;97292.72;4223046;27;6480;-75
2022/07/06 14:39:00;;;;;;;;;;;;;;;28.19;34.63;97281.75;4223779;28;5720;-76
2022/07/06 14:41:02;;;;;;;;;;;;;;;28.16;34.52;97285.06;4225810;28;6006;-76
2022/07/06 14:43:05;;;;;;;;;;;;;;;28.17;34.54;97282.03;4229980;28;5716;-81
2022/07/06 14:45:09;;;;;;;;;;;;;;;28.11;34.53;97285.94;4224544;28;5692;-76
2022/07/06 14:47:18;;;;;;;;;;;;;;;28.06;34.62;97280.56;4222367;28;5766;-77
2022/07/06 14:49:22;;;;;;;;;;;;;;;28.05;34.65;97289.84;4217521;28;5698;-78
2022/07/06 14:51:26;;;;;;;;;;;;;;;28.05;34.49;97277.06;4212989;28;5700;-75
2022/07/06 14:53:29;;;;;;;;;;;;;;;28.07;34.55;97279.47;4233276;27;5728;-76
2022/07/06 14:55:32;;;;;;;;;;;;;;;28.13;34.37;97279.13;4215305;28;6649;-75
2022/07/06 14:57:37;;;;;;;;;;;;;;;28.11;34.38;97275.88;4229814;28;5812;-77
2022/07/06 14:59:40;;;;;;;;;;;;;;;28.11;34.20;97275.88;4231410;28;5602;-83
2022/07/06 15:01:43;;;;;;;;;;;;;;;28.16;33.84;97283.16;4212206;28;5148;-84
2022/07/06 15:03:47;;;;;;;;;;;;;;;28.17;34.08;97271.16;4212832;28;5747;-83
2022/07/06 15:05:53;;;;;;;;;;;;;;;28.19;33.89;97273.59;4219851;28;5730;-83
2022/07/06 15:07:55;;;;;;;;;;;;;;;28.19;33.62;97270.88;4232655;28;5783;-78
2022/07/06 15:09:58;;;;;;;;;;;;;;;28.15;33.62;97270.66;4233372;28;5701;-79
2022/07/06 15:12:02;;;;;;;;;;;;;;;28.21;33.52;97274.94;4227341;28;5474;-78
2022/07/06 15:14:05;;;;;;;;;;;;;;;28.21;33.49;97274.94;4222494;28;5729;-78
2022/07/06 15:16:08;;;;;;;;;;;;;;;28.21;33.36;97277.66;4213015;28;5707;-78
2022/07/06 15:18:11;;;;;;;;;;;;;;;28.18;33.57;97285.56;4212179;28;5783;-78
2022/07/06 15:20:17;;;;;;;;;;;;;;;28.17;33.43;97278.53;4219026;28;5851;-79
2022/07/06 15:22:21;;;;;;;;;;;;;;;28.16;33.16;97269.56;4227225;28;5771;-79
2022/07/06 15:24:24;;;;;;;;;;;;;;;28.13;33.41;97279.13;4216107;28;6504;-79
2022/07/06 15:26:27;;;;;;;;;;;;;;;28.16;33.04;97271.47;4219808;28;5981;-80
2022/07/06 15:28:30;;;;;;;;;;;;;;;28.16;33.17;97266.03;4216402;28;5774;-78
2022/07/06 15:30:33;;;;;;;;;;;;;;;28.15;33.37;97265.22;4215558;28;5786;-79
2022/07/06 15:32:36;;;;;;;;;;;;;;;28.16;33.17;97266.84;4211168;28;5959;-79
2022/07/06 15:34:39;;;;;;;;;;;;;;;28.19;33.28;97266.25;4213115;28;5783;-81
2022/07/06 15:36:42;;;;;;;;;;;;;;;28.18;33.26;97261.09;4218739;28;6444;-82
2022/07/06 15:38:46;;;;;;;;;;;;;;;28.20;33.00;97261.59;4214211;28;5827;-81
2022/07/06 15:40:52;;;;;;;;;;;;;;;28.19;33.12;97271.69;4220218;28;5787;-81
2022/07/06 15:42:55;;;;;;;;;;;;;;;28.22;32.94;97271.09;4221218;28;5822;-82
2022/07/06 15:44:58;;;;;;;;;;;;;;;28.25;32.67;97273.22;4221868;28;5856;-81
2022/07/06 15:47:07;;;;;;;;;;;;;;;28.25;32.51;97264.28;4219532;28;5779;-82
2022/07/06 15:49:10;;;;;;;;;;;;;;;28.26;32.63;97269.41;4212516;28;7783;-84
2022/07/06 15:51:12;;;;;;;;;;;;;;;28.27;32.51;97271.06;4203785;28;5934;-83
2022/07/06 15:53:17;;;;;;;;;;;;;;;28.25;32.59;97265.06;4218744;28;5744;-83
2022/07/06 15:55:22;;;;;;;;;;;;;;;28.23;32.56;97274.63;4221898;28;5684;-83
2022/07/06 15:57:26;;;;;;;;;;;;;;;28.19;32.54;97266.25;4215834;28;5787;-83
2022/07/06 15:59:28;;;;;;;;;;;;;;;28.15;32.60;97267.94;4219820;28;5787;-82
2022/07/06 16:01:31;;;;;;;;;;;;;;;28.18;32.60;97270.06;4223136;28;5688;-83
2022/07/06 16:03:36;;;;;;;;;;;;;;;28.18;32.66;97275.50;4220589;28;5629;-83
2022/07/06 16:05:49;;;;;;;;;;;;;;;28.16;32.56;97266.03;4213836;28;5685;-82
2022/07/06 16:08:12;;;;;;;;;;;;;;;28.16;32.52;97266.84;4176461;28;5773;-81
2022/07/06 16:10:31;;;;;;;;;;;;;;;28.19;32.37;97265.44;4215177;28;6481;-81
2022/07/06 16:12:34;;;;;;;;;;;;;;;28.21;32.26;97261.34;4204791;28;5832;-81
2022/07/06 16:14:37;;;;;;;;;;;;;;;28.22;32.35;97265.69;4217625;28;5618;-81
2022/07/06 16:16:42;;;;;;;;;;;;;;;28.22;32.42;97252.09;4232332;28;5704;-81
2022/07/06 16:18:45;;;;;;;;;;;;;;;28.22;32.17;97256.72;4232395;28;5943;-80